createdAt,value
2022-11-13T00:02:10.424Z,18.77
2022-11-13T00:04:36.861Z,18.70
2022-11-13T00:07:03.261Z,17.75
2022-11-13T00:09:29.668Z,19.10
2022-11-13T00:11:56.056Z,19.25
2022-11-13T00:14:22.456Z,19.80
2022-11-13T00:16:48.901Z,17.88
2022-11-13T00:19:15.269Z,18.58
2022-11-13T00:21:41.661Z,19.23
2022-11-13T00:24:08.142Z,18.13
2022-11-13T00:26:34.529Z,19.40
2022-11-13T00:29:02.500Z,19.45
2022-11-13T00:31:29.611Z,19.67
2022-11-13T00:36:44.641Z,19.83
2022-11-13T00:39:11.017Z,19.48
2022-11-13T00:41:37.525Z,19.38
2022-11-13T00:44:04.008Z,17.25
2022-11-13T00:46:30.425Z,16.77
2022-11-13T00:48:56.818Z,17.48
2022-11-13T00:51:23.292Z,17.13
2022-11-13T00:53:49.712Z,15.93
2022-11-13T00:56:16.265Z,15.15
2022-11-13T00:58:42.674Z,15.40
2022-11-13T01:01:13.462Z,16.35
2022-11-13T01:03:40.167Z,21.15
2022-11-13T01:06:12.124Z,23.67
2022-11-13T01:08:38.499Z,24.05
2022-11-13T01:11:10.842Z,25.75
2022-11-13T01:13:37.790Z,25.38
2022-11-13T01:16:08.756Z,24.90
2022-11-13T01:18:35.692Z,25.33
2022-11-13T01:21:07.169Z,23.55
2022-11-13T01:23:34.141Z,23.23
2022-11-13T01:26:06.913Z,23.27
2022-11-13T01:28:33.290Z,23.27
2022-11-13T01:30:59.727Z,22.52
2022-11-13T01:33:26.106Z,22.92
2022-11-13T01:35:52.501Z,21.42
2022-11-13T01:38:18.860Z,21.77
2022-11-13T01:40:46.514Z,21.48
2022-11-13T01:43:29.171Z,20.63
2022-11-13T01:45:58.537Z,18.92
2022-11-13T01:48:40.710Z,19.42
2022-11-13T01:51:17.204Z,19.23
2022-11-13T01:53:44.591Z,18.10
2022-11-13T01:56:11.678Z,18.45
2022-11-13T01:58:39.720Z,18.55
2022-11-13T02:01:06.509Z,18.95
2022-11-13T02:03:33.037Z,18.60
2022-11-13T02:05:59.779Z,18.70
2022-11-13T02:08:26.562Z,17.83
2022-11-13T02:10:53.152Z,16.85
2022-11-13T02:13:21.207Z,17.55
2022-11-13T02:15:48.871Z,16.73
2022-11-13T02:18:16.532Z,16.52
2022-11-13T02:21:06.324Z,16.77
2022-11-13T02:23:59.701Z,17.42
2022-11-13T02:26:26.513Z,17.67
2022-11-13T02:28:52.886Z,17.15
2022-11-13T02:31:19.376Z,16.20
2022-11-13T02:33:45.829Z,17.55
2022-11-13T02:36:12.871Z,18.20
2022-11-13T02:38:40.474Z,16.77
2022-11-13T02:41:06.902Z,16.45
2022-11-13T02:47:13.977Z,18.48
2022-11-13T02:49:40.356Z,16.80
2022-11-13T02:52:06.809Z,28.90
2022-11-13T02:54:33.186Z,23.85
2022-11-13T02:56:59.675Z,20.83
2022-11-13T02:59:26.065Z,18.48
2022-11-13T03:01:52.499Z,17.77
2022-11-13T03:04:18.987Z,18.80
2022-11-13T03:06:45.468Z,17.45
2022-11-13T03:09:11.942Z,16.23
2022-11-13T03:11:38.343Z,15.88
2022-11-13T03:14:04.765Z,19.42
2022-11-13T03:16:31.176Z,21.23
2022-11-13T03:18:57.547Z,22.52
2022-11-13T03:21:23.977Z,24.38
2022-11-13T03:23:50.440Z,23.70
2022-11-13T03:26:17.515Z,18.27
2022-11-13T03:28:43.937Z,15.57
2022-11-13T03:31:10.469Z,12.50
2022-11-13T03:33:36.902Z,11.35
2022-11-13T03:36:03.695Z,10.52
2022-11-13T03:38:30.472Z,10.10
2022-11-13T03:40:57.152Z,9.68
2022-11-13T03:43:23.873Z,10.55
2022-11-13T03:45:50.687Z,10.90
2022-11-13T03:48:17.395Z,11.35
2022-11-13T03:50:46.118Z,13.80
2022-11-13T03:53:13.240Z,12.68
2022-11-13T03:55:39.816Z,17.17
2022-11-13T03:58:06.539Z,18.35
2022-11-13T04:00:33.057Z,19.20
2022-11-13T04:02:59.463Z,19.48
2022-11-13T04:05:26.510Z,18.83
2022-11-13T04:07:53.262Z,17.38
2022-11-13T04:10:19.696Z,16.83
2022-11-13T04:12:46.099Z,15.50
2022-11-13T04:15:12.524Z,17.08
2022-11-13T04:17:38.918Z,19.52
2022-11-13T04:20:05.937Z,21.30
2022-11-13T04:22:32.356Z,22.70
2022-11-13T04:24:58.734Z,23.02
2022-11-13T04:27:25.168Z,25.80
2022-11-13T04:29:51.548Z,23.35
2022-11-13T04:32:18.052Z,22.70
2022-11-13T04:34:44.427Z,22.95
2022-11-13T04:37:10.884Z,23.25
2022-11-13T04:39:37.376Z,22.85
2022-11-13T04:42:22.073Z,23.10
2022-11-13T04:44:48.465Z,22.55
2022-11-13T04:47:14.819Z,23.55
2022-11-13T04:49:41.319Z,24.30
2022-11-13T04:52:07.750Z,24.48
2022-11-13T04:54:34.136Z,25.25
2022-11-13T04:57:00.523Z,23.30
2022-11-13T04:59:26.908Z,24.17
2022-11-13T05:01:55.617Z,24.02
2022-11-13T05:04:22.416Z,23.88
2022-11-13T05:06:48.838Z,22.80
2022-11-13T05:09:15.415Z,21.55
2022-11-13T05:11:41.881Z,21.58
2022-11-13T05:14:10.364Z,19.95
2022-11-13T05:16:36.802Z,19.45
2022-11-13T05:19:06.843Z,17.67
2022-11-13T05:21:35.015Z,18.50
2022-11-13T05:24:01.435Z,17.88
2022-11-13T05:26:28.038Z,17.38
2022-11-13T05:28:58.159Z,20.70
2022-11-13T05:31:25.182Z,18.77
2022-11-13T05:33:51.754Z,18.50
2022-11-13T05:36:19.690Z,18.02
2022-11-13T05:38:46.405Z,19.38
2022-11-13T05:41:15.464Z,19.23
2022-11-13T05:43:42.483Z,18.00
2022-11-13T05:46:19.981Z,18.77
2022-11-13T05:48:47.290Z,17.15
2022-11-13T05:51:16.045Z,17.10
2022-11-13T05:53:42.924Z,17.23
2022-11-13T05:56:15.535Z,16.20
2022-11-13T06:01:17.409Z,14.68
2022-11-13T06:03:44.407Z,14.52
2022-11-13T06:06:13.422Z,15.30
2022-11-13T06:08:39.894Z,13.30
2022-11-13T06:11:08.778Z,12.55
2022-11-13T06:13:35.297Z,12.27
2022-11-13T06:16:07.365Z,12.63
2022-11-13T06:18:34.781Z,12.45
2022-11-13T06:21:06.619Z,12.27
2022-11-13T06:23:35.132Z,12.80
2022-11-13T06:26:06.961Z,12.50
2022-11-13T06:28:33.820Z,12.70
2022-11-13T06:31:10.105Z,12.82
2022-11-13T06:33:37.549Z,12.52
2022-11-13T06:36:05.777Z,11.88
2022-11-13T06:38:33.663Z,12.15
2022-11-13T06:41:00.587Z,11.48
2022-11-13T06:43:27.773Z,11.57
2022-11-13T06:45:54.523Z,12.90
2022-11-13T06:48:21.093Z,16.38
2022-11-13T06:50:48.658Z,15.13
2022-11-13T06:53:15.670Z,13.27
2022-11-13T06:55:51.137Z,11.68
2022-11-13T06:58:17.548Z,11.27
2022-11-13T07:00:44.310Z,10.35
2022-11-13T07:03:17.078Z,9.80
2022-11-13T07:05:43.672Z,10.95
2022-11-13T07:08:11.000Z,10.18
2022-11-13T07:10:37.843Z,10.75
2022-11-13T07:13:04.478Z,12.48
2022-11-13T07:15:36.676Z,12.05
2022-11-13T07:18:04.269Z,12.18
2022-11-13T07:20:31.153Z,10.48
2022-11-13T07:22:58.604Z,10.43
2022-11-13T07:25:25.164Z,10.25
2022-11-13T07:27:51.575Z,9.80
2022-11-13T07:30:18.286Z,9.68
2022-11-13T07:32:44.644Z,9.57
2022-11-13T07:35:11.377Z,10.50
2022-11-13T07:37:37.918Z,10.13
2022-11-13T07:40:05.204Z,9.90
2022-11-13T07:42:31.714Z,9.93
2022-11-13T07:44:58.096Z,10.27
2022-11-13T07:47:24.811Z,10.95
2022-11-13T07:49:51.198Z,11.57
2022-11-13T07:52:17.647Z,11.57
2022-11-13T07:54:44.324Z,11.57
2022-11-13T07:57:10.729Z,10.90
2022-11-13T07:59:37.113Z,11.27
2022-11-13T08:02:03.530Z,11.50
2022-11-13T08:04:30.240Z,11.63
2022-11-13T08:06:56.727Z,11.25
2022-11-13T08:09:23.170Z,12.05
2022-11-13T08:11:49.578Z,11.40
2022-11-13T08:14:15.948Z,11.70
2022-11-13T08:16:42.342Z,12.73
2022-11-13T08:19:08.820Z,13.98
2022-11-13T08:21:35.616Z,18.95
2022-11-13T08:24:01.988Z,19.13
2022-11-13T08:26:28.490Z,17.00
2022-11-13T08:28:54.883Z,16.58
2022-11-13T08:31:21.265Z,15.48
2022-11-13T08:33:47.633Z,15.48
2022-11-13T08:36:14.039Z,14.27
2022-11-13T08:38:40.427Z,14.60
2022-11-13T08:41:09.253Z,14.30
2022-11-13T08:43:36.064Z,14.32
2022-11-13T08:46:02.518Z,14.25
2022-11-13T08:48:29.157Z,15.63
2022-11-13T08:50:56.503Z,14.38
2022-11-13T08:53:23.611Z,16.08
2022-11-13T08:55:50.176Z,15.75
2022-11-13T08:58:16.674Z,18.13
2022-11-13T09:00:43.082Z,17.10
2022-11-13T09:03:11.261Z,17.45
2022-11-13T09:05:38.073Z,19.65
2022-11-13T09:08:05.302Z,21.05
2022-11-13T09:10:31.801Z,20.58
2022-11-13T09:12:59.295Z,20.17
2022-11-13T09:15:25.923Z,19.48
2022-11-13T09:17:56.224Z,18.52
2022-11-13T09:20:23.226Z,18.98
2022-11-13T09:22:49.697Z,18.98
2022-11-13T09:25:16.147Z,17.33
2022-11-13T09:27:42.503Z,16.92
2022-11-13T09:30:09.388Z,15.48
2022-11-13T09:32:35.771Z,13.88
2022-11-13T09:35:02.173Z,14.50
2022-11-13T09:37:28.633Z,14.88
2022-11-13T09:39:55.001Z,14.70
2022-11-13T09:42:26.828Z,16.25
2022-11-13T09:45:10.721Z,16.05
2022-11-13T09:47:42.431Z,16.65
2022-11-13T09:50:20.063Z,16.00
2022-11-13T09:52:46.678Z,15.20
2022-11-13T09:55:16.443Z,13.10
2022-11-13T09:57:46.125Z,10.98
2022-11-13T10:00:19.085Z,10.77
2022-11-13T10:03:01.006Z,10.57
2022-11-13T10:05:44.697Z,10.30
2022-11-13T10:08:24.155Z,10.43
2022-11-13T10:10:55.892Z,11.00
2022-11-13T10:13:28.446Z,11.23
2022-11-13T10:16:03.465Z,9.63
2022-11-13T10:18:33.887Z,8.57
2022-11-13T10:21:29.445Z,8.27
2022-11-13T10:23:56.833Z,8.88
2022-11-13T10:26:28.539Z,8.90
2022-11-13T10:29:01.265Z,8.57
2022-11-13T10:31:27.707Z,7.82
2022-11-13T10:33:54.896Z,7.88
2022-11-13T10:36:36.450Z,8.07
2022-11-13T10:39:07.751Z,8.27
2022-11-13T10:41:45.716Z,8.10
2022-11-13T10:44:33.565Z,7.35
2022-11-13T10:47:42.565Z,8.60
2022-11-13T10:50:19.965Z,8.27
2022-11-13T10:52:48.365Z,6.75
2022-11-13T10:55:22.299Z,7.35
2022-11-13T10:57:59.759Z,7.30
2022-11-13T11:00:33.496Z,6.93
2022-11-13T11:02:59.965Z,6.30
2022-11-13T11:05:27.343Z,6.00
2022-11-13T11:07:55.282Z,6.03
2022-11-13T11:10:32.134Z,5.47
2022-11-13T11:13:12.546Z,5.88
2022-11-13T11:15:47.618Z,5.25
2022-11-13T11:18:40.850Z,5.05
2022-11-13T11:21:10.178Z,5.38
2022-11-13T11:23:41.609Z,4.90
2022-11-13T11:26:18.652Z,5.55
2022-11-13T11:28:48.096Z,4.75
2022-11-13T11:31:26.590Z,4.85
2022-11-13T11:33:55.162Z,4.60
2022-11-13T11:36:25.209Z,4.63
2022-11-13T11:39:02.674Z,3.92
2022-11-13T11:41:34.639Z,3.80
2022-11-13T11:44:10.888Z,3.90
2022-11-13T11:46:37.344Z,3.40
2022-11-13T11:49:03.719Z,3.50
2022-11-13T11:51:51.435Z,3.33
2022-11-13T11:54:43.985Z,3.20
2022-11-13T11:57:31.584Z,3.22
2022-11-13T12:00:10.880Z,2.75
2022-11-13T12:03:04.603Z,2.47
2022-11-13T12:05:49.332Z,2.70
2022-11-13T12:08:27.664Z,2.30
2022-11-13T12:11:09.791Z,2.33
2022-11-13T12:14:01.325Z,2.13
2022-11-13T12:16:39.285Z,1.75
2022-11-13T12:19:14.288Z,1.67
2022-11-13T12:21:48.856Z,1.80
2022-11-13T12:24:33.211Z,1.65
2022-11-13T12:27:30.610Z,1.55
2022-11-13T12:30:18.223Z,1.50
2022-11-13T12:32:56.316Z,1.40
2022-11-13T12:35:25.067Z,1.45
2022-11-13T12:38:18.960Z,1.55
2022-11-13T12:40:58.667Z,1.25
2022-11-13T12:43:40.379Z,1.60
2022-11-13T12:46:11.717Z,1.40
2022-11-13T12:48:40.588Z,1.60
2022-11-13T12:51:09.378Z,1.50
2022-11-13T12:53:54.216Z,1.73
2022-11-13T12:56:27.625Z,1.83
2022-11-13T12:59:30.506Z,2.50
2022-11-13T13:02:00.847Z,2.45
2022-11-13T13:04:39.084Z,2.35
2022-11-13T13:07:32.748Z,2.10
2022-11-13T13:10:21.997Z,3.38
2022-11-13T13:13:30.004Z,2.65
2022-11-13T13:15:58.988Z,2.00
2022-11-13T13:18:28.160Z,2.20
2022-11-13T13:21:21.559Z,2.20
2022-11-13T13:23:50.968Z,1.98
2022-11-13T13:26:25.891Z,2.20
2022-11-13T13:28:54.998Z,2.50
2022-11-13T13:31:30.426Z,2.47
2022-11-13T13:34:15.533Z,1.95
2022-11-13T13:36:45.008Z,2.00
2022-11-13T13:39:25.307Z,2.40
2022-11-13T13:42:09.315Z,2.15
2022-11-13T13:44:45.781Z,2.67
2022-11-13T13:47:24.151Z,3.83
2022-11-13T13:49:51.272Z,3.78
2022-11-13T13:52:22.028Z,3.75
2022-11-13T13:54:48.497Z,2.67
2022-11-13T13:57:16.093Z,2.85
2022-11-13T13:59:44.657Z,2.40
2022-11-13T14:02:19.769Z,2.70
2022-11-13T14:04:48.101Z,2.00
2022-11-13T14:07:26.842Z,3.00
2022-11-13T14:10:17.421Z,3.30
2022-11-13T14:12:45.460Z,3.72
2022-11-13T14:15:32.414Z,4.35
2022-11-13T14:18:27.228Z,4.35
2022-11-13T14:20:56.313Z,5.00
2022-11-13T14:23:22.641Z,5.60
2022-11-13T14:25:49.259Z,4.95
2022-11-13T14:28:23.513Z,4.88
2022-11-13T14:31:01.429Z,5.70
2022-11-13T14:33:31.743Z,5.80
2022-11-13T14:35:58.886Z,6.10
2022-11-13T14:38:27.913Z,6.38
2022-11-13T14:40:54.500Z,7.50
2022-11-13T14:43:24.184Z,7.80
2022-11-13T14:45:58.739Z,7.90
2022-11-13T14:48:27.361Z,8.80
2022-11-13T14:50:57.795Z,8.45
2022-11-13T14:53:28.702Z,9.00
2022-11-13T14:55:57.935Z,8.85
2022-11-13T14:58:27.829Z,9.50
2022-11-13T15:00:54.351Z,9.60
2022-11-13T15:03:20.883Z,9.52
2022-11-13T15:05:47.310Z,10.50
2022-11-13T15:08:14.088Z,10.63
2022-11-13T15:10:41.060Z,10.65
2022-11-13T15:13:17.937Z,11.48
2022-11-13T15:15:44.691Z,11.73
2022-11-13T15:18:17.390Z,12.27
2022-11-13T15:20:44.577Z,12.52
2022-11-13T15:23:14.104Z,12.73
2022-11-13T15:25:40.855Z,13.55
2022-11-13T15:28:07.298Z,13.20
2022-11-13T15:30:33.703Z,14.18
2022-11-13T15:33:01.392Z,14.45
2022-11-13T15:35:27.834Z,14.90
2022-11-13T15:37:54.496Z,14.85
2022-11-13T15:40:21.083Z,15.88
2022-11-13T15:42:47.569Z,15.70
2022-11-13T15:45:15.456Z,16.65
2022-11-13T15:47:42.578Z,17.33
2022-11-13T15:50:14.097Z,17.67
2022-11-13T15:52:43.754Z,18.88
2022-11-13T15:55:22.078Z,19.63
2022-11-13T15:57:49.016Z,20.88
2022-11-13T16:00:17.973Z,28.77
2022-11-13T16:02:44.398Z,25.08
2022-11-13T16:05:10.800Z,23.45
2022-11-13T16:07:41.168Z,24.02
2022-11-13T16:10:10.003Z,24.88
2022-11-13T16:12:36.407Z,24.52
2022-11-13T16:15:02.875Z,25.77
2022-11-13T16:17:29.312Z,25.77
2022-11-13T16:19:55.874Z,25.63
2022-11-13T16:22:25.064Z,25.50
2022-11-13T16:24:51.848Z,27.77
2022-11-13T16:27:27.277Z,26.42
2022-11-13T16:29:54.035Z,26.77
2022-11-13T16:32:20.950Z,27.10
2022-11-13T16:34:47.337Z,26.00
2022-11-13T16:37:15.873Z,26.88
2022-11-13T16:39:43.194Z,28.83
2022-11-13T16:42:10.349Z,27.73
2022-11-13T16:44:36.778Z,28.13
2022-11-13T16:47:05.132Z,27.73
2022-11-13T16:49:31.554Z,28.90
2022-11-13T16:51:57.938Z,29.63
2022-11-13T16:54:24.302Z,29.52
2022-11-13T16:56:50.704Z,28.67
2022-11-13T16:59:17.216Z,28.75
2022-11-13T17:01:43.740Z,24.70
2022-11-13T17:04:13.535Z,29.10
2022-11-13T17:06:40.004Z,28.45
2022-11-13T17:09:06.680Z,27.88
2022-11-13T17:11:33.146Z,29.70
2022-11-13T17:14:01.030Z,28.13
2022-11-13T17:16:28.965Z,27.25
2022-11-13T17:18:55.795Z,27.33
2022-11-13T17:21:24.152Z,26.15
2022-11-13T17:23:58.194Z,26.80
2022-11-13T17:26:25.360Z,25.67
2022-11-13T17:28:52.084Z,27.55
2022-11-13T17:31:18.923Z,27.33
2022-11-13T17:33:45.442Z,29.08
2022-11-13T17:36:11.838Z,29.55
2022-11-13T17:38:39.061Z,28.65
2022-11-13T17:41:08.101Z,29.02
2022-11-13T17:43:36.466Z,28.25
2022-11-13T17:46:07.016Z,28.60
2022-11-13T17:48:34.224Z,31.25
2022-11-13T17:51:02.352Z,31.88
2022-11-13T17:53:29.803Z,31.77
2022-11-13T17:55:57.835Z,33.10
2022-11-13T17:58:24.834Z,31.67
2022-11-13T18:00:51.619Z,31.67
2022-11-13T18:03:18.544Z,32.42
2022-11-13T18:05:45.449Z,34.22
2022-11-13T18:08:12.550Z,34.42
2022-11-13T18:10:40.086Z,34.17
2022-11-13T18:13:06.923Z,35.78
2022-11-13T18:15:37.618Z,34.63
2022-11-13T18:18:05.167Z,34.95
2022-11-13T18:20:32.092Z,37.33
2022-11-13T18:22:58.829Z,36.40
2022-11-13T18:25:25.303Z,36.63
2022-11-13T18:27:51.747Z,38.45
2022-11-13T18:30:18.569Z,38.85
2022-11-13T18:32:45.094Z,38.40
2022-11-13T18:35:11.493Z,37.30
2022-11-13T18:37:37.879Z,39.55
2022-11-13T18:40:05.199Z,38.50
2022-11-13T18:42:31.565Z,41.15
2022-11-13T18:45:00.566Z,41.30
2022-11-13T18:47:30.978Z,39.92
2022-11-13T18:49:58.204Z,39.72
2022-11-13T18:52:24.626Z,41.35
2022-11-13T18:54:50.978Z,42.13
2022-11-13T18:57:17.358Z,42.25
2022-11-13T18:59:43.762Z,42.97
2022-11-13T19:02:11.788Z,41.38
2022-11-13T19:04:38.207Z,42.50
2022-11-13T19:07:04.612Z,43.17
2022-11-13T19:09:31.014Z,42.75
2022-11-13T19:11:57.380Z,43.08
2022-11-13T19:14:23.918Z,43.63
2022-11-13T19:16:50.410Z,44.28
2022-11-13T19:19:20.185Z,41.53
2022-11-13T19:21:47.044Z,41.05
2022-11-13T19:24:14.721Z,42.53
2022-11-13T19:26:42.319Z,42.28
2022-11-13T19:29:08.805Z,41.92
2022-11-13T19:31:35.354Z,42.65
2022-11-13T19:34:05.886Z,40.65
2022-11-13T19:36:34.464Z,41.55
2022-11-13T19:39:00.950Z,40.30
2022-11-13T19:41:28.568Z,40.80
2022-11-13T19:43:55.312Z,39.92
2022-11-13T19:46:21.749Z,39.65
2022-11-13T19:48:48.816Z,39.60
2022-11-13T19:51:16.350Z,40.42
2022-11-13T19:53:50.310Z,38.15
2022-11-13T19:56:20.539Z,37.72
2022-11-13T19:58:48.433Z,36.15
2022-11-13T20:01:17.625Z,36.67
2022-11-13T20:03:44.037Z,36.17
2022-11-13T20:06:13.275Z,37.00
2022-11-13T20:08:39.890Z,35.85
2022-11-13T20:11:10.149Z,35.72
2022-11-13T20:13:38.219Z,35.60
2022-11-13T20:16:05.980Z,34.20
2022-11-13T20:18:32.730Z,34.92
2022-11-13T20:20:59.134Z,35.40
2022-11-13T20:23:26.168Z,33.55
2022-11-13T20:25:54.466Z,34.60
2022-11-13T20:28:21.218Z,34.67
2022-11-13T20:30:47.841Z,35.17
2022-11-13T20:33:18.461Z,36.65
2022-11-13T20:35:53.488Z,34.58
2022-11-13T20:38:19.854Z,34.50
2022-11-13T20:40:46.214Z,34.50
2022-11-13T20:43:12.635Z,33.63
2022-11-13T20:45:39.005Z,34.35
2022-11-13T20:48:05.587Z,33.33
2022-11-13T20:50:32.066Z,33.03
2022-11-13T20:52:58.424Z,34.95
2022-11-13T20:55:24.799Z,33.85
2022-11-13T20:57:51.202Z,34.72
2022-11-13T21:00:17.739Z,33.70
2022-11-13T21:02:44.202Z,35.70
2022-11-13T21:05:10.775Z,35.42
2022-11-13T21:07:37.166Z,32.78
2022-11-13T21:10:04.409Z,36.03
2022-11-13T21:12:31.907Z,33.90
2022-11-13T21:14:58.275Z,33.33
2022-11-13T21:17:24.670Z,34.00
2022-11-13T21:19:56.376Z,34.60
2022-11-13T21:22:23.932Z,34.58
2022-11-13T21:24:50.314Z,33.83
2022-11-13T21:27:16.700Z,35.50
2022-11-13T21:29:43.112Z,34.10
2022-11-13T21:32:09.513Z,35.45
2022-11-13T21:34:35.943Z,35.28
2022-11-13T21:37:02.323Z,34.58
2022-11-13T21:39:28.721Z,36.35
2022-11-13T21:41:55.185Z,34.92
2022-11-13T21:44:21.572Z,34.83
2022-11-13T21:46:47.990Z,34.90
2022-11-13T21:49:14.385Z,37.30
2022-11-13T21:51:42.766Z,34.38
2022-11-13T21:54:09.678Z,35.10
2022-11-13T21:56:37.335Z,34.20
2022-11-13T21:59:04.920Z,33.15
2022-11-13T22:01:37.753Z,35.38
2022-11-13T22:04:05.146Z,35.28
2022-11-13T22:06:33.165Z,34.92
2022-11-13T22:09:14.445Z,34.95
2022-11-13T22:11:40.849Z,33.80
2022-11-13T22:14:07.797Z,34.55
2022-11-13T22:16:36.651Z,34.95
2022-11-13T22:19:05.333Z,34.28
2022-11-13T22:21:32.381Z,34.55
2022-11-13T22:23:59.565Z,36.17
2022-11-13T22:26:27.345Z,36.38
2022-11-13T22:28:54.787Z,35.40
2022-11-13T22:31:29.513Z,33.65
2022-11-13T22:33:56.049Z,34.72
2022-11-13T22:36:31.639Z,35.40
2022-11-13T22:38:58.622Z,35.22
2022-11-13T22:41:31.049Z,33.58
2022-11-13T22:43:59.697Z,33.03
2022-11-13T22:46:28.567Z,33.30
2022-11-13T22:48:56.264Z,33.35
2022-11-13T22:51:25.364Z,34.13
2022-11-13T22:54:11.876Z,35.67
2022-11-13T22:56:39.875Z,33.67
2022-11-13T22:59:07.672Z,35.38
2022-11-13T23:01:35.996Z,35.92
2022-11-13T23:04:05.294Z,34.63
2022-11-13T23:06:33.492Z,35.00
2022-11-13T23:09:00.585Z,36.60
2022-11-13T23:11:38.867Z,36.00
2022-11-13T23:14:10.417Z,35.47
2022-11-13T23:16:36.865Z,35.70
2022-11-13T23:19:03.478Z,36.10
2022-11-13T23:21:30.458Z,33.85
2022-11-13T23:23:57.573Z,34.90
2022-11-13T23:26:24.933Z,33.92
2022-11-13T23:28:51.363Z,34.88
2022-11-13T23:31:17.887Z,35.33
2022-11-13T23:33:44.764Z,34.35
2022-11-13T23:36:12.697Z,34.58
2022-11-13T23:38:39.217Z,35.95
2022-11-13T23:41:05.657Z,35.05
2022-11-13T23:44:06.611Z,34.97
2022-11-13T23:46:18.652Z,34.58
2022-11-13T23:48:45.105Z,34.97
2022-11-13T23:51:11.494Z,36.75
2022-11-13T23:53:37.926Z,34.83
2022-11-13T23:56:04.710Z,35.30
2022-11-13T23:58:32.483Z,35.40
